createdAt,value
2023-01-11T00:00:30.650Z,7.9
2023-01-11T00:01:46.936Z,10.7
2023-01-11T00:03:03.241Z,7.5
2023-01-11T00:04:19.527Z,10.6
2023-01-11T00:05:35.822Z,7.5
2023-01-11T00:06:51.137Z,10.1
2023-01-11T00:08:07.417Z,8
2023-01-11T00:09:23.725Z,7
2023-01-11T00:10:40.004Z,9.7
2023-01-11T00:11:56.310Z,10.2
2023-01-11T00:13:12.604Z,10.6
2023-01-11T00:14:28.881Z,5.8
2023-01-11T00:15:45.180Z,7.9
2023-01-11T00:17:01.471Z,10.2
2023-01-11T00:18:17.767Z,9.9
2023-01-11T00:19:34.054Z,8.8
2023-01-11T00:20:50.352Z,8.9
2023-01-11T00:22:06.652Z,8.3
2023-01-11T00:23:21.958Z,7.9
2023-01-11T00:24:38.248Z,10.8
2023-01-11T00:25:54.551Z,11.6
2023-01-11T00:27:10.845Z,8.2
2023-01-11T00:28:27.133Z,8.2
2023-01-11T00:29:43.417Z,8.7
2023-01-11T00:30:59.727Z,7.6
2023-01-11T00:32:16.008Z,11.7
2023-01-11T00:33:32.308Z,6.7
2023-01-11T00:34:48.600Z,8
2023-01-11T00:36:04.898Z,14.5
2023-01-11T00:37:21.187Z,9.1
2023-01-11T00:38:37.470Z,10.9
2023-01-11T00:39:52.794Z,9
2023-01-11T00:41:09.092Z,8.6
2023-01-11T00:42:25.378Z,7.3
2023-01-11T00:43:41.684Z,7.7
2023-01-11T00:44:57.966Z,8.8
2023-01-11T00:46:14.254Z,7.5
2023-01-11T00:47:30.560Z,8.3
2023-01-11T00:48:46.846Z,8
2023-01-11T00:50:03.142Z,9.5
2023-01-11T00:51:19.426Z,7.4
2023-01-11T00:52:35.714Z,8.2
2023-01-11T00:53:52.027Z,6.9
2023-01-11T00:55:08.312Z,7.5
2023-01-11T00:56:23.622Z,6
2023-01-11T00:57:39.905Z,6.8
2023-01-11T00:58:56.206Z,7.3
2023-01-11T01:00:12.491Z,5.3
2023-01-11T01:01:28.790Z,6.6
2023-01-11T01:02:45.095Z,7.3
2023-01-11T01:04:01.386Z,7.4
2023-01-11T01:05:17.671Z,5.4
2023-01-11T01:06:33.964Z,8.9
2023-01-11T01:07:50.262Z,8.6
2023-01-11T01:09:06.551Z,6.6
2023-01-11T01:10:22.848Z,9.5
2023-01-11T01:11:39.147Z,7.4
2023-01-11T01:12:55.554Z,6.1
2023-01-11T01:14:11.846Z,7
2023-01-11T01:15:28.136Z,5.3
2023-01-11T01:16:44.436Z,6.8
2023-01-11T01:18:00.727Z,7.5
2023-01-11T01:19:17.025Z,10.9
2023-01-11T01:20:33.317Z,10
2023-01-11T01:21:49.609Z,10.4
2023-01-11T01:23:05.902Z,9.1
2023-01-11T01:24:22.189Z,7.7
2023-01-11T01:25:38.496Z,6.5
2023-01-11T01:26:54.789Z,6
2023-01-11T01:28:11.077Z,6.7
2023-01-11T01:29:26.391Z,9
2023-01-11T01:30:42.672Z,8.3
2023-01-11T01:31:58.978Z,6.1
2023-01-11T01:33:15.262Z,8.1
2023-01-11T01:34:31.561Z,8.7
2023-01-11T01:35:47.855Z,8.3
2023-01-11T01:37:03.165Z,8.6
2023-01-11T01:38:19.452Z,7.6
2023-01-11T01:39:35.748Z,7.6
2023-01-11T01:40:52.043Z,5.4
2023-01-11T01:42:08.335Z,7.9
2023-01-11T01:43:24.643Z,5.7
2023-01-11T01:44:40.923Z,4.5
2023-01-11T01:45:57.233Z,4.3
2023-01-11T01:47:13.507Z,10
2023-01-11T01:48:29.813Z,5.4
2023-01-11T01:49:46.097Z,6.1
2023-01-11T01:51:02.398Z,8.2
2023-01-11T01:52:18.688Z,8.5
2023-01-11T01:53:34.007Z,6.3
2023-01-11T01:54:50.281Z,7.3
2023-01-11T01:56:06.583Z,6.2
2023-01-11T01:57:22.873Z,6.8
2023-01-11T01:58:39.167Z,9.4
2023-01-11T01:59:55.457Z,7.6
2023-01-11T02:01:11.760Z,5.2
2023-01-11T02:02:28.053Z,7
2023-01-11T02:03:44.341Z,6.5
2023-01-11T02:05:00.637Z,6.1
2023-01-11T02:06:16.936Z,7.2
2023-01-11T02:07:33.228Z,7.1
2023-01-11T02:08:49.511Z,6.9
2023-01-11T02:10:04.823Z,8
2023-01-11T02:11:21.114Z,6
2023-01-11T02:12:37.416Z,6
2023-01-11T02:13:53.707Z,7.6
2023-01-11T02:15:10.002Z,6.7
2023-01-11T02:16:26.302Z,7.5
2023-01-11T02:17:42.590Z,8
2023-01-11T02:18:58.873Z,6.9
2023-01-11T02:20:15.171Z,4.4
2023-01-11T02:21:31.474Z,7.8
2023-01-11T02:22:47.759Z,7.1
2023-01-11T02:24:04.054Z,6.6
2023-01-11T02:25:20.346Z,6.6
2023-01-11T02:26:35.661Z,7.4
2023-01-11T02:27:51.948Z,6.5
2023-01-11T02:29:08.252Z,7.9
2023-01-11T02:30:24.529Z,4.7
2023-01-11T02:31:40.827Z,4.8
2023-01-11T02:32:57.119Z,6.9
2023-01-11T02:34:13.429Z,6.3
2023-01-11T02:35:29.714Z,6.3
2023-01-11T02:36:46.007Z,7.1
2023-01-11T02:38:02.288Z,5.6
2023-01-11T02:39:18.586Z,7
2023-01-11T02:40:34.883Z,5.3
2023-01-11T02:41:51.177Z,4.5
2023-01-11T02:43:06.495Z,5.6
2023-01-11T02:44:22.780Z,8.9
2023-01-11T02:45:39.083Z,6.1
2023-01-11T02:46:55.369Z,7.2
2023-01-11T02:48:11.659Z,5.9
2023-01-11T02:49:27.949Z,3.9
2023-01-11T02:50:44.243Z,5
2023-01-11T02:52:00.542Z,7.3
2023-01-11T02:53:16.845Z,6
2023-01-11T02:54:33.127Z,6
2023-01-11T02:55:49.415Z,4
2023-01-11T02:57:05.707Z,5.9
2023-01-11T02:58:22.004Z,6.5
2023-01-11T02:59:37.315Z,3.9
2023-01-11T03:00:53.608Z,9.2
2023-01-11T03:02:09.904Z,4.9
2023-01-11T03:03:26.196Z,4.4
2023-01-11T03:04:42.480Z,7.3
2023-01-11T03:05:58.788Z,8.6
2023-01-11T03:07:15.082Z,5.9
2023-01-11T03:08:31.361Z,5.3
2023-01-11T03:09:47.666Z,6
2023-01-11T03:11:03.961Z,5
2023-01-11T03:12:20.259Z,2.8
2023-01-11T03:13:36.543Z,4.6
2023-01-11T03:14:52.829Z,5.8
2023-01-11T03:16:08.156Z,7
2023-01-11T03:17:24.433Z,6.6
2023-01-11T03:18:40.735Z,7.1
2023-01-11T03:19:57.023Z,6.4
2023-01-11T03:21:13.312Z,8.4
2023-01-11T03:22:29.615Z,6.7
2023-01-11T03:23:45.908Z,6.3
2023-01-11T03:25:02.192Z,5.2
2023-01-11T03:26:18.492Z,2.9
2023-01-11T03:27:34.786Z,3.6
2023-01-11T03:28:51.088Z,5.5
2023-01-11T03:30:07.372Z,2.5
2023-01-11T03:31:23.677Z,5.9
2023-01-11T03:32:38.971Z,5.7
2023-01-11T03:33:55.264Z,6.6
2023-01-11T03:35:11.568Z,4.7
2023-01-11T03:36:27.850Z,5.1
2023-01-11T03:37:44.140Z,5.7
2023-01-11T03:39:00.451Z,4.6
2023-01-11T03:40:16.729Z,4.5
2023-01-11T03:41:33.042Z,4.3
2023-01-11T03:42:49.318Z,3.9
2023-01-11T03:44:05.609Z,5.9
2023-01-11T03:45:21.902Z,4.2
2023-01-11T03:46:38.196Z,6
2023-01-11T03:47:54.489Z,3.7
2023-01-11T03:49:09.796Z,5.2
2023-01-11T03:50:26.115Z,9.8
2023-01-11T03:51:42.398Z,6.9
2023-01-11T03:52:58.682Z,4.9
2023-01-11T03:54:14.970Z,5.9
2023-01-11T03:55:31.266Z,5.7
2023-01-11T03:56:47.571Z,2.9
2023-01-11T03:58:03.857Z,5.8
2023-01-11T03:59:20.158Z,6
2023-01-11T04:00:36.438Z,4.5
2023-01-11T04:01:52.747Z,4
2023-01-11T04:03:09.030Z,2.2
2023-01-11T04:04:25.326Z,6.3
2023-01-11T04:05:40.631Z,4.4
2023-01-11T04:06:56.938Z,4
2023-01-11T04:08:13.222Z,8
2023-01-11T04:09:29.508Z,3.5
2023-01-11T04:10:45.806Z,6.1
2023-01-11T04:12:02.109Z,6.9
2023-01-11T04:13:18.395Z,4
2023-01-11T04:14:34.687Z,3.3
2023-01-11T04:15:50.975Z,5.2
2023-01-11T04:17:07.275Z,7.7
2023-01-11T04:18:23.561Z,6.2
2023-01-11T04:19:39.857Z,4.7
2023-01-11T04:20:56.147Z,5.8
2023-01-11T04:22:11.471Z,3.3
2023-01-11T04:23:27.754Z,7
2023-01-11T04:24:44.058Z,5.1
2023-01-11T04:26:00.337Z,5.7
2023-01-11T04:27:16.631Z,7
2023-01-11T04:28:32.936Z,5.8
2023-01-11T04:29:49.226Z,5.8
2023-01-11T04:31:05.512Z,4.7
2023-01-11T04:32:21.814Z,5.8
2023-01-11T04:33:38.107Z,5.8
2023-01-11T04:34:54.395Z,4.8
2023-01-11T04:36:10.698Z,4
2023-01-11T04:37:26.982Z,4.8
2023-01-11T04:38:42.300Z,8.3
2023-01-11T04:39:58.580Z,7.2
2023-01-11T04:41:14.877Z,6.6
2023-01-11T04:42:31.172Z,4.9
2023-01-11T04:43:47.465Z,3.6
2023-01-11T04:45:03.764Z,5.9
2023-01-11T04:46:20.054Z,5.6
2023-01-11T04:47:36.355Z,12.4
2023-01-11T04:48:52.635Z,5.6
2023-01-11T04:50:08.935Z,5.6
2023-01-11T04:51:25.221Z,6.3
2023-01-11T04:52:41.518Z,5.4
2023-01-11T04:53:57.809Z,4.5
2023-01-11T04:55:13.125Z,4.7
2023-01-11T04:56:29.419Z,4.8
2023-01-11T04:57:45.708Z,6.7
2023-01-11T04:59:02.001Z,4.6
2023-01-11T05:00:18.302Z,4.1
2023-01-11T05:01:34.590Z,6.4
2023-01-11T05:02:50.885Z,5.2
2023-01-11T05:04:07.170Z,5.4
2023-01-11T05:05:23.474Z,5.8
2023-01-11T05:06:39.759Z,3.9
2023-01-11T05:07:56.048Z,4.9
2023-01-11T05:09:12.356Z,7.8
2023-01-11T05:10:28.652Z,6.5
2023-01-11T05:11:43.954Z,5.7
2023-01-11T05:13:00.250Z,5
2023-01-11T05:14:16.539Z,4.9
2023-01-11T05:15:32.835Z,7
2023-01-11T05:16:49.131Z,7.6
2023-01-11T05:18:05.426Z,4.9
2023-01-11T05:19:21.716Z,3.9
2023-01-11T05:20:38.002Z,4.1
2023-01-11T05:21:54.292Z,5.3
2023-01-11T05:23:10.596Z,8.1
2023-01-11T05:24:26.899Z,4.6
2023-01-11T05:25:43.183Z,5.2
2023-01-11T05:26:59.474Z,6
2023-01-11T05:28:14.787Z,6.2
2023-01-11T05:29:31.068Z,5.3
2023-01-11T05:30:47.373Z,4.2
2023-01-11T05:32:03.661Z,5
2023-01-11T05:33:19.954Z,6.3
2023-01-11T05:34:36.242Z,4.5
2023-01-11T05:35:52.533Z,3.9
2023-01-11T05:37:08.836Z,4.2
2023-01-11T05:38:25.125Z,6.5
2023-01-11T05:39:41.413Z,4.8
2023-01-11T05:40:57.720Z,8
2023-01-11T05:42:14.018Z,5.4
2023-01-11T05:43:30.301Z,4.6
2023-01-11T05:44:45.605Z,5.9
2023-01-11T05:46:01.909Z,6.2
2023-01-11T05:47:18.207Z,4.5
2023-01-11T05:48:34.489Z,4.8
2023-01-11T05:49:50.780Z,5.7
2023-01-11T05:51:07.078Z,5.1
2023-01-11T05:52:22.402Z,5.1
2023-01-11T05:53:38.683Z,5.4
2023-01-11T05:54:54.973Z,5.2
2023-01-11T05:56:11.272Z,3.9
2023-01-11T05:57:27.564Z,5.6
2023-01-11T05:58:43.868Z,4.6
2023-01-11T06:00:00.154Z,5.2
2023-01-11T06:01:16.456Z,3.4
2023-01-11T06:02:32.736Z,3.7
2023-01-11T06:03:49.024Z,5.5
2023-01-11T06:05:05.338Z,3.9
2023-01-11T06:06:21.621Z,5.7
2023-01-11T06:07:37.908Z,5.4
2023-01-11T06:08:53.222Z,4.8
2023-01-11T06:10:09.522Z,4.6
2023-01-11T06:11:25.815Z,5.9
2023-01-11T06:12:42.113Z,6.1
2023-01-11T06:13:58.397Z,4.4
2023-01-11T06:15:14.701Z,5
2023-01-11T06:16:30.981Z,6.4
2023-01-11T06:17:47.278Z,7.5
2023-01-11T06:19:03.569Z,5
2023-01-11T06:20:19.872Z,5.4
2023-01-11T06:21:36.162Z,5.1
2023-01-11T06:22:52.450Z,5.2
2023-01-11T06:24:08.746Z,2.4
2023-01-11T06:25:24.046Z,4.2
2023-01-11T06:26:40.349Z,5.4
2023-01-11T06:27:56.652Z,4.5
2023-01-11T06:29:12.932Z,8.1
2023-01-11T06:30:29.233Z,7.9
2023-01-11T06:31:45.515Z,3.8
2023-01-11T06:33:01.821Z,6.1
2023-01-11T06:34:18.117Z,4.6
2023-01-11T06:35:34.403Z,4.3
2023-01-11T06:36:50.697Z,5.3
2023-01-11T06:38:06.932Z,3.6
2023-01-11T06:39:23.237Z,3.1
2023-01-11T06:40:39.529Z,6.3
2023-01-11T06:41:54.840Z,5
2023-01-11T06:43:11.084Z,4.9
2023-01-11T06:44:27.317Z,5.7
2023-01-11T06:45:43.605Z,4.9
2023-01-11T06:46:59.910Z,4.4
2023-01-11T06:48:16.212Z,5.5
2023-01-11T06:49:32.489Z,6.1
2023-01-11T06:50:48.785Z,5.8
2023-01-11T06:52:05.038Z,3.8
2023-01-11T06:53:21.283Z,5
2023-01-11T06:54:37.565Z,6.2
2023-01-11T06:55:53.822Z,5.1
2023-01-11T06:57:10.072Z,4.5
2023-01-11T06:58:25.311Z,4.8
2023-01-11T06:59:41.553Z,5.2
2023-01-11T07:00:57.790Z,3.5
2023-01-11T07:02:14.045Z,4.3
2023-01-11T07:03:30.282Z,4.5
2023-01-11T07:04:46.517Z,6.3
2023-01-11T07:06:02.745Z,6.7
2023-01-11T07:07:18.992Z,4.9
2023-01-11T07:08:35.239Z,4.5
2023-01-11T07:09:51.472Z,5.4
2023-01-11T07:11:07.714Z,6.2
2023-01-11T07:12:23.956Z,4.7
2023-01-11T07:13:40.197Z,4.7
2023-01-11T07:14:55.449Z,5.4
2023-01-11T07:16:11.699Z,5.9
2023-01-11T07:17:27.918Z,6.1
2023-01-11T07:18:44.162Z,4.2
2023-01-11T07:20:00.401Z,4.4
2023-01-11T07:21:16.643Z,7.2
2023-01-11T07:22:32.886Z,5
2023-01-11T07:23:49.114Z,6
2023-01-11T07:25:05.354Z,4.9
2023-01-11T07:26:21.610Z,5.6
2023-01-11T07:27:37.845Z,7.4
2023-01-11T07:28:54.091Z,12.5
2023-01-11T07:30:10.318Z,8.9
2023-01-11T07:31:25.584Z,8.7
2023-01-11T07:32:41.818Z,4.9
2023-01-11T07:33:58.058Z,4.1
2023-01-11T07:35:14.294Z,3.8
2023-01-11T07:36:30.539Z,5.3
2023-01-11T07:37:46.783Z,6.6
2023-01-11T07:39:03.004Z,8
2023-01-11T07:40:19.263Z,7.7
2023-01-11T07:41:35.498Z,4.5
2023-01-11T07:42:51.733Z,4.5
2023-01-11T07:44:07.979Z,4
2023-01-11T07:45:24.214Z,4.2
2023-01-11T07:46:40.444Z,8
2023-01-11T07:47:55.704Z,4.9
2023-01-11T07:49:11.953Z,4.5
2023-01-11T07:50:28.180Z,5.5
2023-01-11T07:51:44.429Z,5.1
2023-01-11T07:53:00.672Z,4.1
2023-01-11T07:54:16.902Z,3.4
2023-01-11T07:55:33.141Z,2.5
2023-01-11T07:56:49.373Z,3.6
2023-01-11T07:58:05.615Z,2.8
2023-01-11T07:59:21.859Z,2.9
2023-01-11T08:00:38.090Z,3.9
2023-01-11T08:01:54.347Z,3.3
2023-01-11T08:03:10.571Z,2.7
2023-01-11T08:04:25.832Z,2.5
2023-01-11T08:05:42.074Z,2.7
2023-01-11T08:06:58.312Z,2.8
2023-01-11T08:08:14.565Z,2
2023-01-11T08:09:30.802Z,3.7
2023-01-11T08:10:47.035Z,3.1
2023-01-11T08:12:03.275Z,1.9
2023-01-11T08:13:19.512Z,4.8
2023-01-11T08:14:35.755Z,2.4
2023-01-11T08:15:51.996Z,3.2
2023-01-11T08:17:08.222Z,2.3
2023-01-11T08:18:24.476Z,2.8
2023-01-11T08:19:40.700Z,2.4
2023-01-11T08:20:55.962Z,2.4
2023-01-11T08:22:12.200Z,3.7
2023-01-11T08:23:28.435Z,3.2
2023-01-11T08:24:44.682Z,3.7
2023-01-11T08:26:00.917Z,4.1
2023-01-11T08:27:17.155Z,5
2023-01-11T08:28:33.391Z,5.9
2023-01-11T08:29:49.637Z,8.5
2023-01-11T08:31:05.874Z,7.5
2023-01-11T08:32:22.107Z,2.4
2023-01-11T08:33:38.356Z,3.3
2023-01-11T08:34:54.600Z,5.5
2023-01-11T08:36:10.837Z,3.6
2023-01-11T08:37:26.091Z,4.5
2023-01-11T08:38:42.332Z,3.9
2023-01-11T08:39:58.575Z,3.6
2023-01-11T08:41:14.799Z,3.9
2023-01-11T08:42:31.043Z,3.2
2023-01-11T08:43:47.281Z,4.5
2023-01-11T08:45:03.537Z,3.9
2023-01-11T08:46:19.764Z,3.4
2023-01-11T08:47:36.006Z,2.8
2023-01-11T08:48:52.243Z,5.1
2023-01-11T08:50:08.482Z,4.5
2023-01-11T08:51:24.728Z,4.7
2023-01-11T08:52:40.965Z,4.4
2023-01-11T08:53:56.229Z,4.3
2023-01-11T08:55:12.469Z,3.7
2023-01-11T08:56:28.703Z,3.5
2023-01-11T08:57:44.929Z,3.6
2023-01-11T08:59:01.187Z,5.1
2023-01-11T09:00:17.427Z,3.8
2023-01-11T09:01:33.650Z,5
2023-01-11T09:02:49.898Z,5.7
2023-01-11T09:04:06.126Z,7.7
2023-01-11T09:05:22.369Z,6.4
2023-01-11T09:06:38.617Z,11.9
2023-01-11T09:07:54.851Z,10.2
2023-01-11T09:09:11.098Z,14.7
2023-01-11T09:10:26.357Z,5.1
2023-01-11T09:11:42.582Z,3.1
2023-01-11T09:12:58.824Z,3.8
2023-01-11T09:14:15.072Z,2.4
2023-01-11T09:15:31.300Z,2
2023-01-11T09:16:47.549Z,3.4
2023-01-11T09:18:03.781Z,4.2
2023-01-11T09:19:20.031Z,2.1
2023-01-11T09:20:36.269Z,1.8
2023-01-11T09:21:52.511Z,1.5
2023-01-11T09:23:08.743Z,1.7
2023-01-11T09:24:24.987Z,1.5
2023-01-11T09:25:41.230Z,1.3
2023-01-11T09:26:56.472Z,2.3
2023-01-11T09:28:12.717Z,1.8
2023-01-11T09:29:28.962Z,1.8
2023-01-11T09:30:45.194Z,2
2023-01-11T09:32:01.442Z,1.5
2023-01-11T09:33:17.683Z,1.7
2023-01-11T09:34:33.909Z,1.4
2023-01-11T09:35:50.162Z,1.9
2023-01-11T09:37:06.397Z,1.3
2023-01-11T09:38:22.629Z,2.1
2023-01-11T09:39:38.877Z,2.4
2023-01-11T09:40:55.114Z,2
2023-01-11T09:42:11.346Z,2
2023-01-11T09:43:26.606Z,1.6
2023-01-11T09:44:42.840Z,1.3
2023-01-11T09:45:59.094Z,1.6
2023-01-11T09:47:15.336Z,2.1
2023-01-11T09:48:31.572Z,1.5
2023-01-11T09:49:47.814Z,1.8
2023-01-11T09:51:04.040Z,1.5
2023-01-11T09:52:20.285Z,1.3
2023-01-11T09:53:36.513Z,1.6
2023-01-11T09:54:52.760Z,1.3
2023-01-11T09:56:08.993Z,2.9
2023-01-11T09:57:25.236Z,1.5
2023-01-11T09:58:41.484Z,2.6
2023-01-11T09:59:56.731Z,0.8
2023-01-11T10:01:12.982Z,1.7
2023-01-11T10:02:29.206Z,0.8
2023-01-11T10:03:45.444Z,1.1
2023-01-11T10:05:01.691Z,1.7
2023-01-11T10:06:17.935Z,1.7
2023-01-11T10:07:33.183Z,1.5
2023-01-11T10:08:49.424Z,0.9
2023-01-11T10:10:05.000Z,1.6
2023-01-11T10:11:21.907Z,2.5
2023-01-11T10:12:38.156Z,1
2023-01-11T10:13:54.397Z,2.2
2023-01-11T10:15:10.636Z,1.4
2023-01-11T10:16:26.857Z,1.6
2023-01-11T10:17:43.117Z,0.9
2023-01-11T10:18:59.342Z,1.8
2023-01-11T10:20:15.586Z,1.4
2023-01-11T10:21:31.827Z,1
2023-01-11T10:22:48.064Z,1.3
2023-01-11T10:24:03.327Z,2.5
2023-01-11T10:25:19.573Z,2.6
2023-01-11T10:26:35.790Z,1.4
2023-01-11T10:27:52.053Z,1.6
2023-01-11T10:29:08.275Z,1.1
2023-01-11T10:30:24.520Z,1
2023-01-11T10:31:40.760Z,1.2
2023-01-11T10:32:56.987Z,1.1
2023-01-11T10:34:13.242Z,1.8
2023-01-11T10:35:29.477Z,3.7
2023-01-11T10:36:45.707Z,1.4
2023-01-11T10:38:01.951Z,1.3
2023-01-11T10:39:18.201Z,0.8
2023-01-11T10:40:33.442Z,2.5
2023-01-11T10:41:49.687Z,1.6
2023-01-11T10:43:05.918Z,0.8
2023-01-11T10:44:22.171Z,1.9
2023-01-11T10:45:38.406Z,2.1
2023-01-11T10:46:54.649Z,1.5
2023-01-11T10:48:10.874Z,3.4
2023-01-11T10:49:27.114Z,1.5
2023-01-11T10:50:43.358Z,1.4
2023-01-11T10:51:59.593Z,1.2
2023-01-11T10:53:15.845Z,2.4
2023-01-11T10:54:32.073Z,1
2023-01-11T10:55:48.312Z,1.1
2023-01-11T10:57:03.587Z,1
2023-01-11T10:58:19.813Z,2.1
2023-01-11T10:59:36.055Z,0.8
2023-01-11T11:00:52.299Z,4.3
2023-01-11T11:02:08.541Z,1.3
2023-01-11T11:03:24.765Z,1.6
2023-01-11T11:04:41.020Z,3.1
2023-01-11T11:05:57.252Z,2.1
2023-01-11T11:07:13.494Z,2.1
2023-01-11T11:08:29.725Z,1.4
2023-01-11T11:09:45.967Z,2.1
2023-01-11T11:11:02.207Z,1
2023-01-11T11:12:18.439Z,1.3
2023-01-11T11:13:33.697Z,2
2023-01-11T11:16:06.182Z,3.1
2023-01-11T11:17:22.411Z,2.2
2023-01-11T11:18:38.655Z,1.3
2023-01-11T11:19:54.909Z,2.6
2023-01-11T11:21:11.142Z,2.1
2023-01-11T11:22:27.383Z,3.2
2023-01-11T11:23:43.612Z,3
2023-01-11T11:24:59.849Z,2
2023-01-11T11:26:16.090Z,2.3
2023-01-11T11:27:32.334Z,2.2
2023-01-11T11:28:48.577Z,2.7
2023-01-11T11:30:03.836Z,2.4
2023-01-11T11:31:20.058Z,1.4
2023-01-11T11:32:36.300Z,1.4
2023-01-11T11:33:52.550Z,0.8
2023-01-11T11:35:08.796Z,2.7
2023-01-11T11:36:25.034Z,1.5
2023-01-11T11:37:41.271Z,3.4
2023-01-11T11:38:57.516Z,2
2023-01-11T11:40:13.743Z,2.6
2023-01-11T11:41:29.988Z,3.1
2023-01-11T11:42:46.212Z,3.9
2023-01-11T11:44:02.460Z,2.3
2023-01-11T11:45:18.711Z,1.8
2023-01-11T11:46:33.969Z,2.7
2023-01-11T11:47:50.199Z,1.5
2023-01-11T11:49:06.437Z,2.5
2023-01-11T11:50:22.675Z,5.3
2023-01-11T11:51:38.923Z,3.9
2023-01-11T11:52:55.155Z,1.7
2023-01-11T11:54:11.401Z,2.5
2023-01-11T11:55:27.643Z,2.2
2023-01-11T11:56:43.877Z,6.1
2023-01-11T11:58:00.108Z,4.2
2023-01-11T11:59:16.359Z,2.5
2023-01-11T12:00:32.587Z,3.9
2023-01-11T12:01:48.839Z,2.9
2023-01-11T12:03:04.092Z,2.7
2023-01-11T12:04:20.323Z,3.1
2023-01-11T12:05:36.557Z,2.8
2023-01-11T12:06:52.810Z,1.6
2023-01-11T12:08:09.045Z,2.5
2023-01-11T12:09:25.301Z,2.5
2023-01-11T12:10:41.519Z,2.8
2023-01-11T12:11:57.754Z,1.8
2023-01-11T12:13:13.996Z,1.8
2023-01-11T12:14:30.247Z,2.9
2023-01-11T12:15:46.485Z,2.5
2023-01-11T12:17:02.725Z,1.9
2023-01-11T12:18:18.967Z,1.2
2023-01-11T12:19:34.209Z,2.8
2023-01-11T12:20:50.450Z,1.2
2023-01-11T12:22:06.705Z,1.7
2023-01-11T12:23:22.940Z,3.1
2023-01-11T12:24:39.167Z,1.9
2023-01-11T12:25:55.409Z,1.6
2023-01-11T12:27:11.652Z,2.3
2023-01-11T12:28:27.897Z,1.9
2023-01-11T12:29:44.134Z,1.1
2023-01-11T12:31:00.377Z,2.6
2023-01-11T12:32:16.629Z,2.4
2023-01-11T12:33:32.850Z,1.7
2023-01-11T12:34:49.107Z,1.4
2023-01-11T12:36:04.350Z,1.4
2023-01-11T12:37:20.601Z,1.1
2023-01-11T12:38:36.835Z,1.7
2023-01-11T12:39:53.066Z,1.7
2023-01-11T12:41:09.301Z,2.7
2023-01-11T12:42:25.550Z,2
2023-01-11T12:43:41.792Z,2.8
2023-01-11T12:44:58.014Z,2.2
2023-01-11T12:46:14.268Z,1.7
2023-01-11T12:47:30.516Z,2.5
2023-01-11T12:48:46.740Z,2.7
2023-01-11T12:50:02.992Z,1.8
2023-01-11T12:51:19.231Z,1.4
2023-01-11T12:52:34.483Z,1.6
2023-01-11T12:53:50.714Z,1.6
2023-01-11T12:55:06.975Z,1.6
2023-01-11T12:56:23.190Z,2.2
2023-01-11T12:57:39.431Z,2.4
2023-01-11T12:58:55.668Z,1.9
2023-01-11T13:00:11.914Z,1.6
2023-01-11T13:01:28.153Z,2.6
2023-01-11T13:02:43.903Z,2.5
2023-01-11T13:04:00.632Z,1.1
2023-01-11T13:05:16.876Z,0.9
2023-01-11T13:06:33.111Z,2.1
2023-01-11T13:07:49.346Z,2.6
2023-01-11T13:09:04.602Z,1.8
2023-01-11T13:10:20.369Z,2.1
2023-01-11T13:11:37.083Z,1.2
2023-01-11T13:12:52.843Z,1.7
2023-01-11T13:14:09.570Z,2.3
2023-01-11T13:15:25.327Z,2.5
2023-01-11T13:16:41.567Z,1.2
2023-01-11T13:17:58.279Z,1.7
2023-01-11T13:19:14.519Z,2.4
2023-01-11T13:20:30.281Z,1.4
2023-01-11T13:21:47.009Z,2
2023-01-11T13:23:03.236Z,3.3
2023-01-11T13:24:19.483Z,3.2
2023-01-11T13:25:34.741Z,3.9
2023-01-11T13:26:50.969Z,1.5
2023-01-11T13:28:07.223Z,3.3
2023-01-11T13:29:22.965Z,1.9
2023-01-11T13:30:39.706Z,5.1
2023-01-11T13:31:55.932Z,4
2023-01-11T13:33:12.171Z,4
2023-01-11T13:34:28.423Z,2.4
2023-01-11T13:35:44.655Z,2.2
2023-01-11T13:37:00.889Z,4.4
2023-01-11T13:38:17.124Z,3.2
2023-01-11T13:39:33.361Z,2.6
2023-01-11T13:40:49.604Z,4.3
2023-01-11T13:42:04.860Z,4.6
2023-01-11T13:43:20.618Z,3.2
2023-01-11T13:44:37.352Z,4
2023-01-11T13:45:53.106Z,4.4
2023-01-11T13:47:09.819Z,3.2
2023-01-11T13:48:25.578Z,2.5
2023-01-11T13:49:42.308Z,2
2023-01-11T13:50:58.539Z,2.7
2023-01-11T13:52:14.782Z,3.1
2023-01-11T13:53:30.532Z,2.7
2023-01-11T13:54:47.255Z,1.9
2023-01-11T13:56:03.496Z,2.8
2023-01-11T13:57:19.745Z,2.9
2023-01-11T13:58:34.993Z,2
2023-01-11T13:59:50.746Z,2.9
2023-01-11T14:01:07.477Z,3.2
2023-01-11T14:02:23.723Z,2.5
2023-01-11T14:03:39.946Z,3.4
2023-01-11T14:04:56.198Z,3.7
2023-01-11T14:06:11.943Z,3.6
2023-01-11T14:07:28.198Z,4.4
2023-01-11T14:08:44.422Z,3.6
2023-01-11T14:10:01.143Z,2.6
2023-01-11T14:11:17.385Z,3
2023-01-11T14:12:33.139Z,3.8
2023-01-11T14:13:49.865Z,3.3
2023-01-11T14:15:05.128Z,3.4
2023-01-11T14:16:21.355Z,4
2023-01-11T14:17:37.116Z,4.4
2023-01-11T14:18:53.849Z,4.1
2023-01-11T14:20:10.083Z,4.9
2023-01-11T14:21:26.327Z,5
2023-01-11T14:22:41.092Z,4
2023-01-11T14:23:57.826Z,5.9
2023-01-11T14:25:14.053Z,4.5
2023-01-11T14:26:30.294Z,5.1
2023-01-11T14:27:46.538Z,4.9
2023-01-11T14:29:02.294Z,7.6
2023-01-11T14:30:18.544Z,8.9
2023-01-11T14:31:35.255Z,8.2
2023-01-11T14:32:51.017Z,11.3
2023-01-11T14:34:07.251Z,5.8
2023-01-11T14:35:23.970Z,3.7
2023-01-11T14:36:40.214Z,5.9
2023-01-11T14:37:55.966Z,5.4
2023-01-11T14:39:11.223Z,8.5
2023-01-11T14:40:27.952Z,5.4
2023-01-11T14:41:44.193Z,5
2023-01-11T14:43:00.426Z,5.5
2023-01-11T14:44:16.673Z,4.8
2023-01-11T14:45:32.905Z,5.4
2023-01-11T14:46:49.135Z,4.7
2023-01-11T14:48:05.382Z,6.3
2023-01-11T14:49:21.134Z,3.7
2023-01-11T14:50:37.871Z,4.8
2023-01-11T14:51:54.101Z,4.5
2023-01-11T14:53:10.337Z,5.6
2023-01-11T14:54:26.585Z,7.5
2023-01-11T14:55:41.835Z,5.5
2023-01-11T14:56:57.587Z,5.8
2023-01-11T14:58:14.313Z,3.2
2023-01-11T14:59:30.082Z,4.4
2023-01-11T15:00:46.784Z,4
2023-01-11T15:02:03.033Z,5.1
2023-01-11T15:03:18.798Z,5.2
2023-01-11T15:04:35.517Z,6.1
2023-01-11T15:05:51.281Z,3.4
2023-01-11T15:07:07.504Z,5.5
2023-01-11T15:08:24.237Z,4.8
2023-01-11T15:09:39.980Z,3.5
2023-01-11T15:10:56.715Z,3.2
2023-01-11T15:12:11.476Z,2.9
2023-01-11T15:13:28.203Z,3.5
2023-01-11T15:14:43.960Z,5.2
2023-01-11T15:16:00.679Z,3.6
2023-01-11T15:17:16.923Z,4.3
2023-01-11T15:18:33.162Z,4
2023-01-11T15:19:49.389Z,4.4
2023-01-11T15:21:05.637Z,4.2
2023-01-11T15:22:21.395Z,4.5
2023-01-11T15:23:38.117Z,3.6
2023-01-11T15:24:54.347Z,3.6
2023-01-11T15:26:10.119Z,3.3
2023-01-11T15:27:26.838Z,3.2
2023-01-11T15:28:42.092Z,2.6
2023-01-11T15:29:58.328Z,3.2
2023-01-11T15:31:14.083Z,2.5
2023-01-11T15:32:30.810Z,2.5
2023-01-11T15:33:47.052Z,3.6
2023-01-11T15:35:03.294Z,2.8
2023-01-11T15:36:19.525Z,2.5
2023-01-11T15:37:35.289Z,4.5
2023-01-11T15:38:51.525Z,3.5
2023-01-11T15:40:08.302Z,4.4
2023-01-11T15:41:24.595Z,5.3
2023-01-11T15:42:40.828Z,4.3
2023-01-11T15:43:57.076Z,5.1
2023-01-11T15:45:12.323Z,5.2
2023-01-11T15:46:28.629Z,4.1
2023-01-11T15:47:44.913Z,4
2023-01-11T15:49:01.201Z,3.4
2023-01-11T15:50:17.501Z,5.7
2023-01-11T15:51:33.798Z,6.9
2023-01-11T15:52:49.605Z,4.8
2023-01-11T15:54:06.381Z,4.5
2023-01-11T15:55:22.676Z,5.4
2023-01-11T15:56:38.961Z,5.5
2023-01-11T15:57:54.779Z,5
2023-01-11T15:59:11.550Z,4.8
2023-01-11T16:00:27.362Z,3.4
2023-01-11T16:01:43.777Z,4.8
2023-01-11T16:03:00.546Z,6.1
2023-01-11T16:04:16.367Z,4.2
2023-01-11T16:05:33.132Z,3.8
2023-01-11T16:06:48.948Z,3.3
2023-01-11T16:08:05.241Z,5.2
2023-01-11T16:09:22.015Z,4.9
2023-01-11T16:10:37.827Z,6.4
2023-01-11T16:11:54.135Z,5
2023-01-11T16:13:10.902Z,5
2023-01-11T16:14:27.194Z,4.4
2023-01-11T16:15:43.018Z,5.1
2023-01-11T16:16:59.781Z,4.4
2023-01-11T16:18:14.606Z,4.4
2023-01-11T16:19:31.390Z,4.6
2023-01-11T16:20:47.192Z,4.7
2023-01-11T16:22:03.975Z,5.9
2023-01-11T16:23:20.264Z,5.5
2023-01-11T16:24:36.074Z,6.1
2023-01-11T16:25:52.368Z,6.2
2023-01-11T16:27:09.138Z,4.4
2023-01-11T16:28:24.968Z,7.1
2023-01-11T16:29:41.243Z,4.7
2023-01-11T16:30:58.021Z,5.6
2023-01-11T16:32:14.313Z,4.6
2023-01-11T16:33:30.616Z,4.8
2023-01-11T16:34:45.926Z,3.7
2023-01-11T16:36:01.732Z,4.7
2023-01-11T16:37:18.519Z,5.8
2023-01-11T16:38:34.803Z,4.7
2023-01-11T16:39:51.094Z,6.4
2023-01-11T16:41:06.911Z,4.3
2023-01-11T16:42:23.675Z,5.2
2023-01-11T16:43:39.494Z,4.4
2023-01-11T16:44:55.787Z,5.4
2023-01-11T16:46:12.091Z,5.1
2023-01-11T16:47:28.852Z,5.3
2023-01-11T16:48:45.155Z,5
2023-01-11T16:50:01.440Z,5.6
2023-01-11T16:51:16.755Z,4
2023-01-11T16:52:33.054Z,4.6
2023-01-11T16:53:48.851Z,6.1
2023-01-11T16:55:05.625Z,6.9
2023-01-11T16:56:21.000Z,4.4
2023-01-11T16:57:38.215Z,4.4
2023-01-11T16:58:54.039Z,4.1
2023-01-11T17:00:10.324Z,4.2
2023-01-11T17:01:26.628Z,4.5
2023-01-11T17:02:43.402Z,4.4
2023-01-11T17:03:59.680Z,8.3
2023-01-11T17:05:15.497Z,4.8
2023-01-11T17:06:32.273Z,6.4
2023-01-11T17:07:47.581Z,5.9
2023-01-11T17:09:03.868Z,5.8
2023-01-11T17:10:20.165Z,5.5
2023-01-11T17:11:35.983Z,7.3
2023-01-11T17:12:52.749Z,6.6
2023-01-11T17:14:08.572Z,5.6
2023-01-11T17:15:25.342Z,5.9
2023-01-11T17:16:41.642Z,5.3
2023-01-11T17:17:57.451Z,5.1
2023-01-11T17:19:14.228Z,5.4
2023-01-11T17:20:30.513Z,3.9
2023-01-11T17:21:46.326Z,7.2
2023-01-11T17:23:03.107Z,6.5
2023-01-11T17:24:18.426Z,6.4
2023-01-11T17:25:34.236Z,6.1
2023-01-11T17:26:51.004Z,5.3
2023-01-11T17:28:07.289Z,4.9
2023-01-11T17:29:23.105Z,5.1
2023-01-11T17:30:39.877Z,5
2023-01-11T17:31:56.188Z,5.1
2023-01-11T17:33:11.990Z,4.4
2023-01-11T17:34:28.771Z,4.2
2023-01-11T17:35:45.070Z,5.6
2023-01-11T17:37:01.362Z,3.9